Time;durP1;ratioP1;P1;durP2;ratioP2;P2;SDS_P1;SDS_P2;PMS_P1;PMS_P2;Temp;Humidity;BMP_temperature;BMP_pressure;BME280_temperature;BME280_humidity;BME280_pressure;Samples;Min_cycle;Max_cycle;Signal;HPM_P1;HPM_P2
2021/04/17 00:01:29;;;;;;;10.57;6.67;;;5.20;88.80;;;;;;6109452;23;20409;-82
2021/04/17 00:44:42;;;;;;;9.20;5.33;;;4.90;92.50;;;;;;6061034;23;20422;-82
2021/04/17 00:47:11;;;;;;;11.00;5.40;;;4.70;92.60;;;;;;6133855;23;20411;-82
2021/04/17 00:50:00;;;;;;;6.33;5.03;;;4.70;92.70;;;;;;6133685;23;20446;-82
2021/04/17 00:52:27;;;;;;;8.93;5.63;;;4.70;92.90;;;;;;6134063;23;20475;-82
2021/04/17 00:54:57;;;;;;;9.17;5.80;;;4.60;92.90;;;;;;6134127;23;20434;-82
2021/04/17 00:57:29;;;;;;;7.23;6.20;;;4.60;93.10;;;;;;6159034;23;20495;-82
2021/04/17 01:00:06;;;;;;;7.17;5.30;;;4.70;93.30;;;;;;6133610;23;20443;-83
2021/04/17 01:02:43;;;;;;;7.07;5.20;;;4.60;93.30;;;;;;6133759;23;20871;-82
2021/04/17 01:22:56;;;;;;;;;;;;;;;;;;;;;
2021/04/17 01:32:52;;;;;;;8.87;6.90;;;4.50;94.30;;;;;;6027351;23;20427;-82
2021/04/17 01:35:22;;;;;;;10.53;9.47;;;4.50;94.40;;;;;;6133592;23;20416;-82
2021/04/17 01:38:16;;;;;;;11.80;8.10;;;4.40;94.60;;;;;;6133838;23;20442;-82
2021/04/17 01:40:48;;;;;;;9.80;8.80;;;4.40;94.70;;;;;;6157094;23;20460;-82
2021/04/17 01:43:17;;;;;;;9.73;8.83;;;4.40;94.90;;;;;;6140967;23;20424;-82
2021/04/17 01:45:46;;;;;;;11.03;9.23;;;4.40;95.00;;;;;;6140984;23;20436;-82
2021/04/17 01:48:15;;;;;;;11.90;10.23;;;4.40;95.20;;;;;;6133708;23;20799;-83
2021/04/17 01:50:45;;;;;;;12.90;11.50;;;4.40;95.40;;;;;;6133666;23;20491;-82
2021/04/17 01:53:38;;;;;;;;;;;;;;;;;;;;;
2021/04/17 02:33:51;;;;;;;;;;;;;;;;;;;;;
2021/04/17 03:00:15;;;;;;;8.33;4.87;;;4.00;96.90;;;;;;5790269;24;20444;-83
2021/04/17 03:02:45;;;;;;;9.53;5.60;;;4.00;97.00;;;;;;5845157;24;20409;-83
2021/04/17 03:05:14;;;;;;;9.93;5.83;;;4.00;97.10;;;;;;5999777;23;20424;-83
2021/04/17 03:07:42;;;;;;;11.67;6.10;;;3.90;97.30;;;;;;6103184;23;20410;-82
2021/04/17 03:10:11;;;;;;;7.63;5.80;;;3.90;97.30;;;;;;6103101;23;20444;-82
2021/04/17 03:12:38;;;;;;;11.63;5.67;;;3.90;97.50;;;;;;6138862;23;20480;-82
2021/04/17 03:15:08;;;;;;;9.83;6.17;;;3.80;97.60;;;;;;6102694;23;20491;-82
2021/04/17 03:17:36;;;;;;;11.67;6.60;;;3.80;97.70;;;;;;6102865;23;20422;-82
2021/04/17 03:20:05;;;;;;;9.00;5.57;;;3.70;97.80;;;;;;6102450;23;20472;-82
2021/04/17 03:22:32;;;;;;;8.30;5.60;;;3.80;98.00;;;;;;6102097;23;20965;-82
2021/04/17 03:25:00;;;;;;;8.30;5.57;;;3.70;98.10;;;;;;6101901;23;20405;-82
2021/04/17 03:27:27;;;;;;;8.50;6.40;;;3.70;98.20;;;;;;6137574;23;20436;-81
2021/04/17 03:29:56;;;;;;;7.90;6.07;;;3.70;98.30;;;;;;6133682;23;20433;-83
2021/04/17 03:40:30;;;;;;;9.73;6.67;;;3.70;98.60;;;;;;5876002;24;20476;-82
2021/04/17 03:42:58;;;;;;;9.50;6.77;;;3.70;98.70;;;;;;6035289;23;20488;-82
2021/04/17 03:45:29;;;;;;;7.90;5.77;;;3.70;98.70;;;;;;6045170;23;20418;-82
2021/04/17 03:48:12;;;;;;;12.30;6.63;;;3.60;98.70;;;;;;6068656;23;20885;-82
2021/04/17 04:08:48;;;;;;;11.70;8.30;;;3.50;99.40;;;;;;5846444;24;20927;-83
2021/04/17 04:39:14;;;;;;;15.25;10.48;;;3.50;99.90;;;;;;5844701;24;20791;-82
2021/04/17 04:41:43;;;;;;;14.27;10.47;;;3.70;99.90;;;;;;6012826;23;20186;-83
2021/04/17 04:44:11;;;;;;;12.67;11.10;;;3.70;99.90;;;;;;6105738;23;20424;-82
2021/04/17 04:46:42;;;;;;;16.52;9.60;;;3.60;99.90;;;;;;6140461;23;20418;-83
2021/04/17 04:49:13;;;;;;;11.80;9.57;;;3.70;99.90;;;;;;6105554;23;20199;-82
2021/04/17 04:51:42;;;;;;;14.97;9.70;;;3.70;99.90;;;;;;6105376;23;20444;-83
2021/04/17 04:54:29;;;;;;;10.17;9.00;;;3.70;99.90;;;;;;6106322;23;20409;-82
2021/04/17 05:30:45;;;;;;;14.70;11.77;;;3.90;99.90;;;;;;5873485;24;20453;-83
2021/04/17 05:33:17;;;;;;;20.30;11.37;;;3.90;99.90;;;;;;5928579;24;20477;-82
2021/04/17 05:35:45;;;;;;;11.77;10.67;;;3.90;99.90;;;;;;6040302;23;20432;-82
2021/04/17 05:38:12;;;;;;;14.50;11.20;;;3.90;99.90;;;;;;6100651;23;20445;-82
2021/04/17 05:40:40;;;;;;;15.70;10.97;;;4.00;99.90;;;;;;6103968;23;20456;-83
2021/04/17 05:43:14;;;;;;;14.67;11.80;;;4.00;99.90;;;;;;6128159;23;20456;-82
2021/04/17 05:45:43;;;;;;;16.20;11.27;;;4.00;99.90;;;;;;6103566;23;20420;-82
2021/04/17 06:45:37;;;;;;;10.73;7.60;;;4.80;99.90;;;;;;6084658;23;20521;-82
2021/04/17 06:48:09;;;;;;;9.47;7.60;;;4.80;99.90;;;;;;6126687;23;20417;-82
2021/04/17 06:50:41;;;;;;;8.80;7.30;;;4.90;99.90;;;;;;6127126;23;20904;-82
2021/04/17 06:53:11;;;;;;;11.20;8.27;;;5.00;99.90;;;;;;6102081;23;20440;-82
2021/04/17 06:55:40;;;;;;;10.53;7.67;;;5.00;99.90;;;;;;6111435;23;20433;-81
2021/04/17 06:58:08;;;;;;;9.40;7.50;;;5.10;99.90;;;;;;6110930;23;20417;-83
2021/04/17 07:00:39;;;;;;;9.37;7.80;;;5.10;99.90;;;;;;6138401;23;20519;-83
2021/04/17 07:03:10;;;;;;;8.70;7.90;;;5.10;99.90;;;;;;6102753;23;20451;-83
2021/04/17 07:05:42;;;;;;;12.67;8.63;;;5.20;99.90;;;;;;6124940;23;20802;-84
2021/04/17 07:22:31;;;;;;;9.57;7.70;;;5.60;99.90;;;;;;5966365;24;20428;-83
2021/04/17 07:25:16;;;;;;;10.23;8.27;;;5.70;99.90;;;;;;5983172;24;20439;-83
2021/04/17 07:27:45;;;;;;;11.80;8.33;;;5.90;99.90;;;;;;5959537;24;20427;-82
2021/04/17 07:30:33;;;;;;;9.07;7.77;;;6.20;99.90;;;;;;6001119;23;20928;-82
2021/04/17 07:33:09;;;;;;;7.90;6.67;;;6.40;99.90;;;;;;6016263;23;20859;-82
2021/04/17 07:35:39;;;;;;;11.00;6.63;;;6.50;99.90;;;;;;6015914;23;20888;-83
2021/04/17 07:38:16;;;;;;;8.20;6.20;;;6.60;99.90;;;;;;6015834;23;20423;-83
2021/04/17 07:40:45;;;;;;;8.70;6.43;;;6.60;99.90;;;;;;6015921;23;20451;-83
2021/04/17 07:43:17;;;;;;;7.27;6.53;;;6.70;99.90;;;;;;6016333;23;20450;-83
2021/04/17 07:45:44;;;;;;;9.37;6.93;;;6.70;99.90;;;;;;6015359;23;20421;-83
2021/04/17 07:48:23;;;;;;;10.53;6.77;;;6.80;99.90;;;;;;6039777;23;20461;-82
2021/04/17 07:50:52;;;;;;;8.50;5.70;;;6.90;99.90;;;;;;6127129;23;20497;-82
2021/04/17 07:53:29;;;;;;;6.80;5.63;;;7.00;99.90;;;;;;6138894;23;20421;-82
2021/04/17 07:56:25;;;;;;;7.40;5.60;;;7.10;99.90;;;;;;6105461;23;20416;-85
2021/04/17 07:58:56;;;;;;;6.13;5.17;;;7.10;99.90;;;;;;6106677;23;20448;-84
2021/04/17 08:01:26;;;;;;;8.07;5.40;;;7.20;99.90;;;;;;6105766;23;20426;-83
2021/04/17 08:03:56;;;;;;;6.60;5.40;;;7.30;99.90;;;;;;6106389;23;20425;-84
2021/04/17 08:06:26;;;;;;;6.30;4.93;;;7.40;99.90;;;;;;6105553;23;20416;-84
2021/04/17 08:08:57;;;;;;;8.30;5.73;;;7.50;99.90;;;;;;6105274;23;20500;-84
2021/04/17 08:11:26;;;;;;;8.90;5.07;;;7.60;99.90;;;;;;6105464;23;20804;-83
2021/04/17 08:13:56;;;;;;;8.17;5.70;;;7.60;99.90;;;;;;6104996;23;20429;-83
2021/04/17 08:16:24;;;;;;;6.40;4.80;;;7.70;99.90;;;;;;6106044;23;20425;-83
2021/04/17 08:18:53;;;;;;;7.63;4.83;;;7.80;99.90;;;;;;6130613;23;20448;-82
2021/04/17 08:21:22;;;;;;;8.80;6.03;;;7.80;99.90;;;;;;6141225;23;20409;-82
2021/04/17 08:23:52;;;;;;;6.20;4.37;;;7.90;99.90;;;;;;6140116;23;20413;-83
2021/04/17 08:26:20;;;;;;;10.67;4.53;;;8.00;99.90;;;;;;6136939;23;20388;-82
2021/04/17 08:28:50;;;;;;;8.33;4.10;;;8.00;99.90;;;;;;6101742;23;20421;-82
2021/04/17 08:31:25;;;;;;;8.63;3.80;;;8.10;99.90;;;;;;6109049;23;20447;-83
2021/04/17 08:34:11;;;;;;;8.03;4.50;;;8.20;99.90;;;;;;6104345;23;20424;-83
2021/04/17 08:36:42;;;;;;;7.00;3.90;;;8.30;99.90;;;;;;6103731;23;20416;-83
2021/04/17 08:39:40;;;;;;;7.50;4.10;;;8.30;99.90;;;;;;6103055;23;20434;-83
2021/04/17 08:42:15;;;;;;;4.83;3.60;;;8.40;99.90;;;;;;6103554;23;20409;-83
2021/04/17 08:44:44;;;;;;;7.07;3.57;;;8.50;99.90;;;;;;6105191;23;20412;-83
2021/04/17 08:47:14;;;;;;;5.67;3.07;;;8.50;99.90;;;;;;6106442;23;20431;-82
2021/04/17 08:49:43;;;;;;;5.80;3.00;;;8.50;99.90;;;;;;6116845;23;20469;-83
2021/04/17 08:52:20;;;;;;;7.43;3.60;;;8.60;99.90;;;;;;6107067;23;20437;-83
2021/04/17 08:55:03;;;;;;;3.83;2.87;;;8.60;99.90;;;;;;6107208;23;20418;-84
2021/04/17 08:57:31;;;;;;;5.00;3.37;;;8.60;99.90;;;;;;6105536;23;20451;-84
2021/04/17 09:00:01;;;;;;;4.60;2.83;;;8.70;99.90;;;;;;6107149;23;20437;-84
2021/04/17 09:02:29;;;;;;;5.30;3.10;;;8.70;99.90;;;;;;6142296;23;20401;-83
2021/04/17 09:04:59;;;;;;;5.37;3.00;;;8.70;99.90;;;;;;6109373;23;20421;-84
2021/04/17 09:07:28;;;;;;;3.97;2.30;;;8.70;99.90;;;;;;6109523;23;20899;-84
2021/04/17 09:10:17;;;;;;;5.83;3.20;;;8.80;99.90;;;;;;6110587;23;20447;-83
2021/04/17 09:12:46;;;;;;;4.60;3.63;;;8.80;99.90;;;;;;6115139;23;20449;-83
2021/04/17 09:15:13;;;;;;;7.33;3.60;;;9.00;99.90;;;;;;6107829;23;20257;-84
2021/04/17 09:21:42;;;;;;;5.13;3.50;;;9.10;99.90;;;;;;6112411;23;20430;-84
2021/04/17 09:37:50;;;;;;;5.80;3.13;;;9.60;99.90;;;;;;6144596;23;20388;-85
2021/04/17 09:40:29;;;;;;;6.20;3.50;;;9.70;99.90;;;;;;6124023;23;20436;-85
2021/04/17 09:42:56;;;;;;;8.10;3.60;;;10.00;99.90;;;;;;6131145;23;20796;-85
2021/04/17 09:45:35;;;;;;;4.23;2.67;;;10.20;99.90;;;;;;6131594;23;20455;-84
2021/04/17 09:48:09;;;;;;;10.30;3.00;;;10.40;99.90;;;;;;6131013;23;20416;-84
2021/04/17 09:50:41;;;;;;;4.70;3.03;;;10.60;99.90;;;;;;6130770;23;20467;-85
2021/04/17 09:53:17;;;;;;;4.90;2.73;;;10.80;99.90;;;;;;6127351;23;20440;-84
2021/04/17 09:55:57;;;;;;;5.83;3.20;;;10.90;99.90;;;;;;6132259;23;20426;-84
2021/04/17 09:58:43;;;;;;;6.57;2.90;;;11.10;99.90;;;;;;6131720;23;20402;-83
2021/04/17 10:01:29;;;;;;;7.97;4.03;;;11.20;99.90;;;;;;6132459;23;20411;-83
2021/04/17 10:04:15;;;;;;;6.33;3.23;;;11.30;99.90;;;;;;6131307;23;20488;-84
2021/04/17 10:07:12;;;;;;;4.57;2.93;;;11.50;99.90;;;;;;6133472;23;20394;-84
2021/04/17 10:10:13;;;;;;;7.27;3.93;;;11.60;99.90;;;;;;6131675;23;20444;-83
2021/04/17 10:13:22;;;;;;;5.27;3.10;;;11.70;99.90;;;;;;6133429;23;20428;-83
2021/04/17 10:16:09;;;;;;;5.40;3.50;;;11.80;99.90;;;;;;6131948;23;20404;-84
2021/04/17 10:19:09;;;;;;;6.70;3.50;;;11.90;99.90;;;;;;6130850;23;20426;-83
2021/04/17 10:22:01;;;;;;;6.20;3.47;;;11.90;99.90;;;;;;6108544;23;20412;-83
2021/04/17 10:24:54;;;;;;;8.57;3.20;;;11.90;99.90;;;;;;6132051;23;20784;-83
2021/04/17 10:27:43;;;;;;;11.07;3.97;;;11.90;99.60;;;;;;6130850;23;20421;-83
2021/04/17 10:31:08;;;;;;;6.53;2.90;;;11.90;99.40;;;;;;6143256;23;20519;-83
2021/04/17 10:34:07;;;;;;;7.00;3.30;;;12.00;99.40;;;;;;6189773;23;20406;-82
2021/04/17 10:37:29;;;;;;;3.50;2.20;;;12.10;99.20;;;;;;6195898;23;20417;-82
2021/04/17 10:40:19;;;;;;;4.57;2.70;;;12.20;98.70;;;;;;6195748;23;20435;-83
2021/04/17 10:43:36;;;;;;;3.90;3.00;;;12.20;98.30;;;;;;6189738;23;20407;-81
2021/04/17 10:46:20;;;;;;;4.23;2.27;;;12.30;98.00;;;;;;6191499;23;20439;-83
2021/04/17 10:49:15;;;;;;;3.70;3.00;;;12.40;98.20;;;;;;6192976;23;20710;-83
2021/04/17 10:52:00;;;;;;;4.40;2.37;;;12.50;97.70;;;;;;6168113;23;20421;-84
2021/04/17 10:55:02;;;;;;;4.60;2.50;;;12.60;97.40;;;;;;6165664;23;20506;-83
2021/04/17 10:57:51;;;;;;;4.70;2.70;;;12.70;96.60;;;;;;6192661;23;20174;-83
2021/04/17 11:01:02;;;;;;;5.50;3.17;;;12.80;96.50;;;;;;6191610;23;20433;-83
2021/04/17 11:03:57;;;;;;;4.43;2.77;;;12.90;96.30;;;;;;6191797;23;20390;-83
2021/04/17 11:06:47;;;;;;;4.80;3.23;;;12.90;96.30;;;;;;6167460;23;20422;-82
2021/04/17 11:09:34;;;;;;;4.60;2.87;;;13.10;96.20;;;;;;6193902;23;20482;-82
2021/04/17 11:12:41;;;;;;;7.17;3.40;;;13.10;96.10;;;;;;6191756;23;20438;-82
2021/04/17 11:15:47;;;;;;;8.57;3.80;;;13.00;95.90;;;;;;6192334;23;20417;-83
2021/04/17 11:18:44;;;;;;;4.60;3.47;;;13.00;95.80;;;;;;6192101;23;20421;-83
2021/04/17 11:22:10;;;;;;;4.90;3.43;;;12.90;95.70;;;;;;6168596;23;20427;-81
2021/04/17 11:25:18;;;;;;;4.80;3.60;;;12.90;95.40;;;;;;6179565;23;20423;-85
2021/04/17 11:28:09;;;;;;;5.43;3.83;;;12.90;95.80;;;;;;6167932;23;20453;-85
2021/04/17 11:31:18;;;;;;;5.70;3.43;;;12.90;95.60;;;;;;6192308;23;20427;-85
2021/04/17 11:34:09;;;;;;;5.70;4.13;;;12.90;95.40;;;;;;6165968;23;20441;-84
2021/04/17 11:37:02;;;;;;;4.50;2.90;;;12.90;95.20;;;;;;6164558;23;20422;-84
2021/04/17 11:39:40;;;;;;;5.20;3.10;;;12.90;95.10;;;;;;6189793;23;20419;-84
2021/04/17 11:53:11;;;;;;;;;;;;;;;;;;;;;
2021/04/17 11:56:03;;;;;;;5.10;3.03;;;13.20;94.00;;;;;;6076084;23;20421;-82
2021/04/17 12:09:20;;;;;;;4.73;2.63;;;12.90;93.40;;;;;;5888123;23;20418;-83
2021/04/17 12:15:20;;;;;;;4.20;2.40;;;13.00;93.00;;;;;;6040225;23;20420;-82
2021/04/17 12:18:47;;;;;;;4.63;4.20;;;13.10;93.00;;;;;;6015325;23;20433;-83
2021/04/17 13:26:04;;;;;;;4.00;2.60;;;14.00;85.20;;;;;;6026352;23;20421;-82
2021/04/17 13:32:50;;;;;;;3.63;2.90;;;14.10;85.60;;;;;;5951751;23;20990;-82
2021/04/17 13:38:58;;;;;;;3.50;3.13;;;14.20;86.10;;;;;;6057952;23;20419;-82
2021/04/17 13:45:03;;;;;;;2.90;2.30;;;14.20;85.80;;;;;;6158152;23;20731;-84
2021/04/17 13:47:32;;;;;;;4.35;2.67;;;14.20;85.90;;;;;;6166369;23;20415;-84
2021/04/17 13:50:01;;;;;;;3.03;2.50;;;14.30;85.20;;;;;;6167327;23;20243;-84
2021/04/17 13:52:28;;;;;;;3.20;2.43;;;14.30;84.50;;;;;;6166585;23;20439;-84
2021/04/17 13:54:56;;;;;;;3.13;2.83;;;14.30;84.30;;;;;;6166731;23;20493;-83
2021/04/17 13:57:23;;;;;;;3.63;2.90;;;14.30;84.40;;;;;;6166222;23;20507;-82
2021/04/17 13:59:51;;;;;;;4.40;2.63;;;14.30;83.40;;;;;;6165538;23;20197;-83
2021/04/17 14:02:19;;;;;;;5.70;2.67;;;14.30;82.60;;;;;;6165956;23;20974;-83
2021/04/17 14:04:47;;;;;;;3.00;2.40;;;14.30;82.80;;;;;;6165568;23;20419;-83
2021/04/17 14:07:18;;;;;;;2.50;2.30;;;14.40;82.80;;;;;;6166158;23;20466;-83
2021/04/17 14:09:46;;;;;;;4.00;2.70;;;14.40;81.90;;;;;;6165878;23;20492;-82
2021/04/17 14:12:14;;;;;;;3.70;2.60;;;14.30;81.60;;;;;;6165083;23;20397;-82
2021/04/17 14:14:45;;;;;;;4.10;3.27;;;14.30;82.00;;;;;;6164836;23;20518;-82
2021/04/17 14:17:13;;;;;;;4.80;3.17;;;14.30;81.90;;;;;;6165496;23;20403;-83
2021/04/17 14:19:41;;;;;;;3.93;3.20;;;14.30;81.30;;;;;;6201340;23;20418;-82
2021/04/17 14:22:08;;;;;;;4.20;3.50;;;14.30;81.20;;;;;;6165757;23;20429;-83
2021/04/17 14:24:38;;;;;;;3.43;3.13;;;14.30;81.60;;;;;;6165533;23;20423;-82
2021/04/17 14:36:31;;;;;;;5.30;3.60;;;14.40;82.40;;;;;;6130266;23;20503;-82
2021/04/17 14:39:00;;;;;;;5.30;3.57;;;14.40;82.40;;;;;;6134816;23;20403;-82
2021/04/17 14:41:29;;;;;;;5.03;4.03;;;14.40;82.40;;;;;;6075768;23;20496;-81
2021/04/17 14:43:57;;;;;;;5.87;3.20;;;14.40;82.30;;;;;;6100172;23;20431;-81
2021/04/17 14:46:24;;;;;;;6.43;4.20;;;14.40;82.40;;;;;;6075996;23;20452;-83
2021/04/17 14:49:10;;;;;;;4.87;4.20;;;14.40;82.60;;;;;;6100380;23;20496;-82
2021/04/17 14:51:54;;;;;;;7.33;6.00;;;14.40;82.60;;;;;;6105046;23;20399;-83
2021/04/17 15:01:21;;;;;;;5.53;4.57;;;14.40;82.30;;;;;;6097552;23;20421;-85
2021/04/17 15:03:54;;;;;;;5.33;4.83;;;14.50;81.70;;;;;;6079682;23;20715;-84
2021/04/17 15:06:21;;;;;;;7.77;6.60;;;14.50;81.70;;;;;;6079167;23;20392;-84
2021/04/17 15:08:49;;;;;;;8.60;5.03;;;14.50;81.80;;;;;;6103765;23;20392;-84
2021/04/17 15:11:16;;;;;;;6.60;4.70;;;14.40;82.00;;;;;;6101217;23;20447;-84
2021/04/17 15:13:44;;;;;;;4.73;4.33;;;14.40;82.10;;;;;;6076743;23;20449;-84
2021/04/17 15:16:11;;;;;;;5.37;4.63;;;14.30;82.20;;;;;;6077000;23;20396;-84
2021/04/17 15:18:43;;;;;;;6.43;5.83;;;14.30;82.10;;;;;;6101535;23;20960;-85
2021/04/17 15:21:16;;;;;;;6.30;4.33;;;14.30;82.00;;;;;;6100929;23;20393;-84
2021/04/17 15:23:44;;;;;;;4.93;4.37;;;14.30;82.10;;;;;;6100633;23;20514;-84
2021/04/17 15:26:12;;;;;;;7.83;5.57;;;14.40;82.30;;;;;;6101276;23;20457;-84
2021/04/17 15:28:54;;;;;;;6.43;5.60;;;14.40;82.30;;;;;;6077162;23;20544;-84
2021/04/17 15:31:36;;;;;;;6.50;5.10;;;14.40;82.20;;;;;;6076896;23;20797;-84
2021/04/17 15:34:12;;;;;;;5.77;5.17;;;14.40;82.20;;;;;;6076600;23;20444;-84
2021/04/17 15:37:06;;;;;;;5.53;4.97;;;14.50;82.30;;;;;;6076393;23;20425;-84
2021/04/17 15:39:49;;;;;;;6.07;5.47;;;14.50;81.60;;;;;;6112032;23;20407;-83
2021/04/17 15:42:18;;;;;;;5.50;4.90;;;14.50;81.50;;;;;;6076358;23;20396;-83
2021/04/17 15:44:45;;;;;;;6.10;5.60;;;14.50;81.10;;;;;;6100238;23;20790;-83
2021/04/17 15:47:15;;;;;;;8.37;5.37;;;14.50;81.10;;;;;;6113658;23;20484;-83
2021/04/17 15:49:44;;;;;;;8.37;5.40;;;14.50;81.10;;;;;;6103863;23;20467;-83
2021/04/17 15:52:21;;;;;;;6.87;5.07;;;14.50;81.30;;;;;;6101977;23;20851;-83
2021/04/17 15:55:31;;;;;;;7.17;5.80;;;14.50;81.20;;;;;;6113490;23;20414;-84
2021/04/17 16:14:43;;;;;;;7.00;6.30;;;14.60;82.00;;;;;;6077475;23;20390;-83
2021/04/17 16:17:25;;;;;;;6.77;6.07;;;14.60;81.80;;;;;;6077043;23;20395;-83
2021/04/17 16:19:55;;;;;;;6.60;5.33;;;14.60;81.90;;;;;;6077990;23;20427;-83
2021/04/17 16:22:31;;;;;;;5.87;5.27;;;14.60;81.90;;;;;;6101677;23;20426;-83
2021/04/17 16:25:05;;;;;;;6.17;4.80;;;14.70;81.80;;;;;;6101946;23;20440;-83
2021/04/17 16:27:43;;;;;;;8.50;5.90;;;14.70;81.70;;;;;;6102701;23;20422;-83
2021/04/17 16:30:24;;;;;;;10.13;7.35;;;14.70;81.70;;;;;;6101902;23;20811;-83
2021/04/17 16:33:03;;;;;;;10.07;7.30;;;14.60;81.50;;;;;;6102296;23;20200;-83
2021/04/17 16:35:40;;;;;;;11.10;7.00;;;14.70;81.50;;;;;;6103483;23;20426;-83
2021/04/17 16:38:15;;;;;;;8.87;6.90;;;14.70;81.60;;;;;;6079813;23;20397;-83
2021/04/17 16:40:53;;;;;;;6.90;6.07;;;14.70;81.90;;;;;;6102325;23;20420;-84
2021/04/17 16:43:33;;;;;;;7.53;6.30;;;14.80;82.60;;;;;;6079499;23;20505;-84
2021/04/17 16:46:13;;;;;;;7.80;6.77;;;14.80;83.00;;;;;;6101193;23;20414;-83
2021/04/17 16:48:59;;;;;;;8.20;6.93;;;14.90;82.80;;;;;;6076642;23;20456;-83
2021/04/17 16:51:50;;;;;;;9.07;7.10;;;14.90;82.90;;;;;;6075282;23;20397;-84
2021/04/17 16:54:48;;;;;;;4.73;4.33;;;15.10;83.40;;;;;;6076562;23;20447;-83
2021/04/17 16:57:46;;;;;;;6.23;4.77;;;15.10;83.60;;;;;;6076797;23;20423;-84
2021/04/17 17:00:43;;;;;;;6.97;4.60;;;15.10;84.10;;;;;;6098041;23;20427;-84
2021/04/17 17:03:12;;;;;;;5.90;4.83;;;15.10;84.40;;;;;;6099888;23;20421;-83
2021/04/17 17:05:42;;;;;;;7.33;4.60;;;15.00;84.70;;;;;;6101737;23;20423;-83
2021/04/17 17:08:16;;;;;;;6.23;5.23;;;15.00;85.30;;;;;;6078240;23;20428;-84
2021/04/17 17:10:47;;;;;;;7.00;4.87;;;15.00;85.90;;;;;;6077325;23;20751;-83
2021/04/17 17:13:21;;;;;;;5.33;4.77;;;15.20;86.50;;;;;;6078324;23;20426;-83
2021/04/17 17:19:29;;;;;;;6.30;4.97;;;16.70;85.20;;;;;;6062015;23;20449;-84
2021/04/17 17:22:45;;;;;;;5.33;4.47;;;17.50;83.50;;;;;;6103719;23;20436;-84
2021/04/17 17:25:37;;;;;;;6.07;4.47;;;18.10;81.80;;;;;;6113361;23;20499;-84
2021/04/17 17:28:21;;;;;;;5.03;4.30;;;18.40;80.80;;;;;;6102415;23;20413;-84
2021/04/17 17:31:32;;;;;;;6.97;5.10;;;18.80;80.30;;;;;;6112749;23;20456;-84
2021/04/17 17:38:31;;;;;;;6.38;5.40;;;19.00;78.00;;;;;;6099589;23;20835;-84
2021/04/17 17:41:22;;;;;;;6.97;5.20;;;18.90;77.70;;;;;;6113270;23;20205;-84
2021/04/17 17:44:20;;;;;;;9.60;6.40;;;18.50;77.20;;;;;;6102073;23;20421;-84
2021/04/17 17:46:57;;;;;;;5.37;4.87;;;17.40;77.20;;;;;;6101456;23;20484;-84
2021/04/17 17:49:26;;;;;;;7.33;5.20;;;16.40;78.50;;;;;;6101972;23;20469;-84
2021/04/17 17:52:03;;;;;;;8.20;5.73;;;15.60;79.20;;;;;;6080804;23;20434;-84
2021/04/17 17:54:36;;;;;;;7.17;5.10;;;15.10;80.10;;;;;;6103873;23;20767;-85
2021/04/17 17:57:04;;;;;;;7.73;5.87;;;14.70;80.60;;;;;;6080903;23;20433;-85
2021/04/17 17:59:44;;;;;;;6.70;5.63;;;14.30;80.90;;;;;;6103285;23;20420;-85
2021/04/17 18:02:17;;;;;;;9.10;5.63;;;14.00;81.20;;;;;;6103579;23;20423;-85
2021/04/17 18:04:51;;;;;;;7.00;5.03;;;13.70;81.50;;;;;;6105005;23;20399;-85
2021/04/17 18:07:21;;;;;;;5.30;4.60;;;13.50;81.80;;;;;;6104568;23;20392;-85
2021/04/17 18:09:49;;;;;;;9.70;5.90;;;13.20;82.00;;;;;;6114144;23;20825;-84
2021/04/17 18:12:17;;;;;;;6.53;5.93;;;13.10;82.30;;;;;;6078955;23;20422;-84
2021/04/17 18:14:47;;;;;;;6.27;5.67;;;12.90;82.50;;;;;;6102194;23;20424;-84
2021/04/17 18:17:15;;;;;;;11.30;8.70;;;12.70;82.80;;;;;;6078042;23;20421;-84
2021/04/17 18:19:44;;;;;;;12.90;9.13;;;12.50;82.80;;;;;;6103562;23;20443;-85
2021/04/17 18:22:13;;;;;;;15.10;9.67;;;12.40;83.10;;;;;;6079346;23;20417;-84
2021/04/17 18:24:44;;;;;;;12.10;7.57;;;12.30;83.30;;;;;;6101129;23;20431;-84
2021/04/17 18:27:14;;;;;;;17.77;10.57;;;12.10;83.40;;;;;;6100794;23;20755;-84
2021/04/17 18:29:43;;;;;;;12.97;9.40;;;12.00;83.60;;;;;;6077553;23;20446;-84
2021/04/17 18:32:20;;;;;;;7.87;6.87;;;11.90;83.80;;;;;;6100767;23;20910;-84
2021/04/17 18:34:54;;;;;;;7.80;6.23;;;11.80;84.00;;;;;;6100378;23;20455;-84
2021/04/17 18:37:23;;;;;;;7.10;6.40;;;11.70;84.20;;;;;;6103935;23;20421;-85
2021/04/17 18:39:55;;;;;;;10.33;6.23;;;11.60;84.30;;;;;;6077533;23;20473;-84
2021/04/17 18:42:25;;;;;;;9.50;6.60;;;11.50;84.60;;;;;;6102369;23;20424;-84
2021/04/17 18:44:54;;;;;;;9.23;8.30;;;11.40;84.70;;;;;;6078143;23;20440;-84
2021/04/17 18:47:28;;;;;;;12.17;8.87;;;11.30;84.90;;;;;;6101465;23;20717;-84
2021/04/17 18:50:03;;;;;;;10.83;9.17;;;11.20;85.00;;;;;;6077824;23;20449;-84
2021/04/17 18:52:32;;;;;;;10.87;7.87;;;11.20;85.30;;;;;;6077912;23;20904;-84
2021/04/17 18:55:01;;;;;;;6.80;5.63;;;11.10;85.40;;;;;;6078220;23;20450;-84
2021/04/17 18:57:32;;;;;;;6.53;5.93;;;11.00;85.60;;;;;;6102318;23;20426;-84
2021/04/17 19:00:00;;;;;;;6.30;5.23;;;10.90;85.80;;;;;;6102550;23;20508;-84
2021/04/17 19:02:33;;;;;;;8.67;6.37;;;10.80;85.80;;;;;;6078214;23;20417;-84
2021/04/17 19:08:57;;;;;;;9.15;7.28;;;10.70;86.20;;;;;;6103897;23;20550;-84
2021/04/17 19:11:44;;;;;;;10.27;7.10;;;10.70;87.60;;;;;;6078955;23;20171;-84
2021/04/17 19:14:35;;;;;;;7.97;6.80;;;10.60;87.30;;;;;;6102881;23;20441;-84
2021/04/17 19:17:25;;;;;;;7.17;6.47;;;10.50;87.40;;;;;;6079825;23;20456;-84
2021/04/17 19:20:34;;;;;;;10.00;5.90;;;10.40;87.60;;;;;;6079188;23;20449;-84
2021/04/17 19:23:53;;;;;;;7.20;6.17;;;10.30;87.80;;;;;;6113266;23;20410;-84
2021/04/17 19:26:45;;;;;;;6.60;5.77;;;10.20;88.20;;;;;;6114807;23;20439;-84
2021/04/17 19:29:40;;;;;;;6.23;5.33;;;10.10;88.40;;;;;;6080400;23;20445;-84
2021/04/17 19:32:25;;;;;;;8.00;6.40;;;10.00;88.90;;;;;;6106057;23;20430;-84
2021/04/17 19:35:27;;;;;;;8.80;7.23;;;9.90;90.10;;;;;;6081885;23;20427;-84
2021/04/17 19:38:23;;;;;;;9.33;8.40;;;9.80;90.30;;;;;;6107450;23;20488;-84
2021/04/17 19:41:36;;;;;;;9.03;7.77;;;9.70;90.50;;;;;;6106345;23;20420;-84
2021/04/17 19:44:20;;;;;;;9.10;8.20;;;9.60;90.60;;;;;;6080258;23;20421;-84
2021/04/17 19:47:24;;;;;;;8.63;7.70;;;9.60;90.70;;;;;;6080570;23;20426;-82
2021/04/17 19:50:33;;;;;;;7.20;6.50;;;9.50;90.90;;;;;;6081391;23;20471;-84
2021/04/17 19:53:20;;;;;;;8.67;7.80;;;9.40;91.00;;;;;;6101011;23;20428;-84
2021/04/17 19:56:24;;;;;;;9.33;7.53;;;9.40;91.20;;;;;;6105269;23;20450;-82
2021/04/17 19:59:10;;;;;;;8.03;7.20;;;9.20;91.20;;;;;;6103809;23;20485;-82
2021/04/17 20:01:47;;;;;;;10.00;7.20;;;9.20;91.40;;;;;;6104105;23;20420;-82
2021/04/17 20:04:33;;;;;;;9.20;7.20;;;9.20;91.50;;;;;;6115093;23;20744;-82
2021/04/17 20:07:16;;;;;;;7.10;6.27;;;9.10;91.70;;;;;;6078159;23;20503;-82
2021/04/17 20:10:07;;;;;;;8.50;7.17;;;9.10;91.70;;;;;;6101090;23;20797;-84
2021/04/17 20:13:01;;;;;;;9.80;6.80;;;9.10;91.90;;;;;;6076727;23;20411;-83
2021/04/17 20:15:39;;;;;;;8.73;7.40;;;9.00;91.90;;;;;;6101577;23;20429;-82
2021/04/17 20:18:18;;;;;;;9.80;8.07;;;9.00;92.00;;;;;;6080733;23;20428;-82
2021/04/17 20:21:32;;;;;;;10.90;8.27;;;8.90;92.10;;;;;;6100426;23;20466;-82
2021/04/17 20:24:54;;;;;;;;;;;;;;;;;;;;;
2021/04/17 20:27:45;;;;;;;8.40;7.67;;;8.90;92.30;;;;;;6099549;23;20798;-85
2021/04/17 20:30:53;;;;;;;14.20;10.53;;;8.80;92.40;;;;;;6099765;23;20528;-83
2021/04/17 20:33:31;;;;;;;9.60;8.27;;;8.70;92.50;;;;;;6076065;23;20522;-82
2021/04/17 20:36:23;;;;;;;10.73;9.50;;;8.70;92.60;;;;;;6099791;23;20515;-83
2021/04/17 20:39:19;;;;;;;9.83;8.47;;;8.70;92.80;;;;;;6099249;23;20487;-83
